Site contains unofficial IBTrACS data. Visit the IBTrACS Website to access archived data.

1885 NOT_NAMED (1885040S16075)


IBTrACS version v04r00. Visit IBTrACS website for data access.
Please direct all questions to the IBTrACS Q and A forum

Storm track - Intensity - Wind Radii - Intensity Data - Source Data - All data

Summary Information

Storm ID 1885040S16075
Start Feb 9 00Z
End Feb 16 00Z
ATCF IDs
Track status Best track data.

Storm track plot

Map of storm track

Intensity plots

No Intensity information for this storm


Radial wind information

No radial wind information for this storm


Position and Intensity Table

BASIN ISO_TIME_________ NATURE LAT LON
degrees north degrees east
SI 1885-02-09 00:00:00 TS -16.00 75.40
SI 03:00:00 TS -16.10 75.00
SI 06:00:00 TS -16.20 74.60
SI 09:00:00 TS -16.29 74.19
SI 12:00:00 TS -16.40 73.80
SI 15:00:00 TS -16.54 73.45
SI 18:00:00 TS -16.70 73.10
SI 21:00:00 TS -16.86 72.71
SI 1885-02-10 00:00:00 TS -17.00 72.30
SI 03:00:00 TS -17.10 71.89
SI 06:00:00 TS -17.20 71.50
SI 09:00:00 TS -17.34 71.16
SI 12:00:00 TS -17.50 70.80
SI 15:00:00 TS -17.64 70.31
SI 18:00:00 TS -17.80 69.80
SI 21:00:00 TS -18.00 69.34
SI 1885-02-11 00:00:00 TS -18.20 68.90
SI 03:00:00 TS -18.36 68.48
SI 06:00:00 TS -18.50 68.10
SI 09:00:00 TS -18.65 67.73
SI 12:00:00 TS -18.80 67.40
SI 15:00:00 TS -18.95 67.10
SI 18:00:00 TS -19.10 66.80
SI 21:00:00 TS -19.26 66.45
SI 1885-02-12 00:00:00 TS -19.40 66.10
SI 03:00:00 TS -19.51 65.78
SI 06:00:00 TS -19.60 65.50
SI 09:00:00 TS -19.70 65.25
SI 12:00:00 TS -19.80 65.00
SI 15:00:00 TS -19.89 64.70
SI 18:00:00 TS -20.00 64.40
SI 21:00:00 TS -20.14 64.16
SI 1885-02-13 00:00:00 TS -20.30 63.90
SI 03:00:00 TS -20.44 63.51
SI 06:00:00 TS -20.60 63.10
SI 09:00:00 TS -20.79 62.75
SI 12:00:00 TS -21.00 62.40
SI 15:00:00 TS -21.20 62.01
SI 18:00:00 TS -21.40 61.60
SI 21:00:00 TS -21.60 61.21
SI 1885-02-14 00:00:00 TS -21.80 60.80
SI 03:00:00 TS -22.00 60.35
SI 06:00:00 TS -22.20 59.90
SI 09:00:00 TS -22.40 59.49
SI 12:00:00 TS -22.60 59.10
SI 15:00:00 TS -22.80 58.69
SI 18:00:00 TS -23.00 58.30
SI 21:00:00 TS -23.20 57.95
SI 1885-02-15 00:00:00 TS -23.40 57.60
SI 03:00:00 TS -23.60 57.21
SI 06:00:00 TS -23.80 56.80
SI 09:00:00 TS -24.00 56.40
SI 12:00:00 TS -24.20 56.00
SI 15:00:00 TS -24.39 55.59
SI 18:00:00 TS -24.60 55.20
SI 21:00:00 TS -24.84 54.84
SI 1885-02-16 00:00:00 TS -25.10 54.50

Source Information

Agency Information
USA
TOKYO
CMA
HKO
NEWDELHI
REUNION
BOM
NADI
WELLINGTON
DS824 s_hem.dat:40:NOT NAMED
TD9636
TD9635
NEUMANN
MLC

All available IBTrACS Data

SEASON BASIN SUBBASIN ISO_TIME_________ NATURE LAT LON DIST2LAND LANDFALL IFLAG USA SSHS DS824 LAT DS824 LON DS824 STAGE STORM SPEED STORM DIR
Year degrees north degrees east km km 1 degrees north degrees east kts degrees
1885 SI MM 1885-02-09 00:00:00 TS -16.00 75.40 1919 1875 _________O____ -1 -16.00 75.40 TC 8 255
1885 SI MM 03:00:00 TS -16.10 75.00 1875 1831 _________P____ -1 -16.10 75.00 TC 8 255
1885 SI MM 06:00:00 TS -16.20 74.60 1831 1787 _________O____ -1 -16.20 74.60 TC 8 256
1885 SI MM 09:00:00 TS -16.29 74.19 1787 1743 _________P____ -1 -16.29 74.19 TC 8 255
1885 SI MM 12:00:00 TS -16.40 73.80 1743 1709 _________O____ -1 -16.40 73.80 TC 8 251
1885 SI MM 15:00:00 TS -16.54 73.45 1699 1662 _________P____ -1 -16.54 73.45 TC 7 246
1885 SI MM 18:00:00 TS -16.70 73.10 1662 1618 _________O____ -1 -16.70 73.10 TC 8 246
1885 SI MM 21:00:00 TS -16.86 72.71 1615 1571 _________P____ -1 -16.86 72.71 TC 8 249
1885 SI MM 1885-02-10 00:00:00 TS -17.00 72.30 1571 1527 _________O____ -1 -17.00 72.30 TC 8 253
1885 SI MM 03:00:00 TS -17.10 71.89 1527 1483 _________P____ -1 -17.10 71.89 TC 8 255
1885 SI MM 06:00:00 TS -17.20 71.50 1483 1449 _________O____ -1 -17.20 71.50 TC 7 251
1885 SI MM 09:00:00 TS -17.34 71.16 1449 1402 _________P____ -1 -17.34 71.16 TC 7 246
1885 SI MM 12:00:00 TS -17.50 70.80 1402 1348 _________O____ -1 -17.50 70.80 TC 9 250
1885 SI MM 15:00:00 TS -17.64 70.31 1348 1291 _________P____ -1 -17.64 70.31 TC 10 253
1885 SI MM 18:00:00 TS -17.80 69.80 1291 1245 _________O____ -1 -17.80 69.80 TC 10 249
1885 SI MM 21:00:00 TS -18.00 69.34 1234 1188 _________P____ -1 -18.00 69.34 TC 9 245
1885 SI MM 1885-02-11 00:00:00 TS -18.20 68.90 1188 1144 _________O____ -1 -18.20 68.90 TC 9 246
1885 SI MM 03:00:00 TS -18.36 68.48 1142 1098 _________P____ -1 -18.36 68.48 TC 8 248
1885 SI MM 06:00:00 TS -18.50 68.10 1098 1065 _________O____ -1 -18.50 68.10 TC 8 248
1885 SI MM 09:00:00 TS -18.65 67.73 1055 1019 _________P____ -1 -18.65 67.73 TC 7 246
1885 SI MM 12:00:00 TS -18.80 67.40 1019 986 _________O____ -1 -18.80 67.40 TC 7 243
1885 SI MM 15:00:00 TS -18.95 67.10 986 951 _________P____ -1 -18.95 67.10 TC 6 242
1885 SI MM 18:00:00 TS -19.10 66.80 951 918 _________O____ -1 -19.10 66.80 TC 7 243
1885 SI MM 21:00:00 TS -19.26 66.45 916 873 _________P____ -1 -19.26 66.45 TC 7 246
1885 SI MM 1885-02-12 00:00:00 TS -19.40 66.10 873 841 _________O____ -1 -19.40 66.10 TC 7 248
1885 SI MM 03:00:00 TS -19.51 65.78 841 808 _________P____ -1 -19.51 65.78 TC 6 251
1885 SI MM 06:00:00 TS -19.60 65.50 808 786 _________O____ -1 -19.60 65.50 TC 5 249
1885 SI MM 09:00:00 TS -19.70 65.25 776 754 _________P____ -1 -19.70 65.25 TC 5 247
1885 SI MM 12:00:00 TS -19.80 65.00 754 721 _________O____ -1 -19.80 65.00 TC 6 250
1885 SI MM 15:00:00 TS -19.89 64.70 721 689 _________P____ -1 -19.89 64.70 TC 6 250
1885 SI MM 18:00:00 TS -20.00 64.40 689 668 _________O____ -1 -20.00 64.40 TC 6 244
1885 SI MM 21:00:00 TS -20.14 64.16 668 636 _________P____ -1 -20.14 64.16 TC 6 237
1885 SI MM 1885-02-13 00:00:00 TS -20.30 63.90 636 594 _________O____ -1 -20.30 63.90 TC 7 244
1885 SI MM 03:00:00 TS -20.44 63.51 594 553 _________P____ -1 -20.44 63.51 TC 8 248
1885 SI MM 06:00:00 TS -20.60 63.10 553 522 _________O____ -1 -20.60 63.10 TC 8 244
1885 SI MM 09:00:00 TS -20.79 62.75 513 484 _________P____ -1 -20.79 62.75 TC 8 239
1885 SI MM 12:00:00 TS -21.00 62.40 484 448 _________O____ -1 -21.00 62.40 TC 8 240
1885 SI MM 15:00:00 TS -21.20 62.01 448 413 _________P____ -1 -21.20 62.01 TC 8 242
1885 SI MM 18:00:00 TS -21.40 61.60 413 381 _________O____ -1 -21.40 61.60 TC 8 242
1885 SI MM 21:00:00 TS -21.60 61.21 381 352 _________P____ -1 -21.60 61.21 TC 8 242
1885 SI MM 1885-02-14 00:00:00 TS -21.80 60.80 352 326 _________O____ -1 -21.80 60.80 TC 9 243
1885 SI MM 03:00:00 TS -22.00 60.35 317 296 _________P____ -1 -22.00 60.35 TC 9 244
1885 SI MM 06:00:00 TS -22.20 59.90 296 281 _________O____ -1 -22.20 59.90 TC 9 243
1885 SI MM 09:00:00 TS -22.40 59.49 282 272 _________P____ -1 -22.40 59.49 TC 8 242
1885 SI MM 12:00:00 TS -22.60 59.10 275 270 _________O____ -1 -22.60 59.10 TC 8 242
1885 SI MM 15:00:00 TS -22.80 58.69 277 273 _________P____ -1 -22.80 58.69 TC 8 242
1885 SI MM 18:00:00 TS -23.00 58.30 286 284 _________O____ -1 -23.00 58.30 TC 8 240
1885 SI MM 21:00:00 TS -23.20 57.95 302 296 _________P____ -1 -23.20 57.95 TC 8 238
1885 SI MM 1885-02-15 00:00:00 TS -23.40 57.60 298 290 _________O____ -1 -23.40 57.60 TC 8 240
1885 SI MM 03:00:00 TS -23.60 57.21 294 289 _________P____ -1 -23.60 57.21 TC 8 241
1885 SI MM 06:00:00 TS -23.80 56.80 295 291 _________O____ -1 -23.80 56.80 TC 8 242
1885 SI MM 09:00:00 TS -24.00 56.40 302 299 _________P____ -1 -24.00 56.40 TC 8 241
1885 SI MM 12:00:00 TS -24.20 56.00 315 314 _________O____ -1 -24.20 56.00 TC 8 242
1885 SI MM 15:00:00 TS -24.39 55.59 335 335 _________P____ -1 -24.39 55.59 TC 8 241
1885 SI MM 18:00:00 TS -24.60 55.20 360 360 _________O____ -1 -24.60 55.20 TC 8 237
1885 SI MM 21:00:00 TS -24.84 54.84 388 388 _________P____ -1 -24.84 54.84 TC 8 232
1885 SI MM 1885-02-16 00:00:00 TS -25.10 54.50 428 _________O____ -1 -25.10 54.50 TC 8 230